Latest Coastal Weather Observations for Williamtown

IDN60701

Issued at 5:55 pm EDT Sunday 26 October 2014 (issued every 10 minutes, with the page automatically refreshed every 10 minutes)

About coastal observations | Map of coastal stations | Coastal observations for NSW | Marine services | Other Formats
Station Details ID: 061078 Name: WILLIAMTOWN RAAF Lat: -32.79 Lon: 151.84 Height: 9.0 m
Data from the previous 72 hours. | See also: Recent months at Williamtown
Date/Time
EDT
Temp

°C
Wind Pressure Rain
since 9am
mm
Weather Cloud Vis
km
Sea
Height
m
Swell
Dir
 
Speed
knots
Gust
knots
hPa Trend Height
m
Period
s
Dir
26/05:49pm 25.1 S 15 20 1008.1 - 0.0 - - 10 - - - -
26/05:30pm 30.1 E 12 16 1007.4 - 0.0 - - 10 - - - -
26/05:00pm 30.8 E 13 17 1006.8 - 0.0 - - 10 - - - -
26/04:30pm 30.4 E 15 18 1006.5 - 0.0 - - 10 - - - -
26/04:00pm 31.0 E 15 19 1006.2 - 0.0 - - 10 - - - -
26/03:30pm 31.9 ESE 15 19 1006.2 - 0.0 - - 10 - - - -
26/03:00pm 32.7 ESE 11 15 1006.2 F 0.0 Haze Mostly clear 20 - - - -
26/02:30pm 33.0 SE 11 16 1006.6 - 0.0 - - 10 - - - -
26/02:00pm 36.6 W 11 17 1006.9 - 0.0 - - 10 - - - -
26/01:30pm 35.9 WNW 11 15 1007.4 - 0.0 - - 10 - - - -
26/01:00pm 34.8 NW 11 15 1007.9 - 0.0 - - 10 - - - -
26/12:30pm 33.2 W 11 14 1008.3 - 0.0 - - 10 - - - -
26/12:00pm 31.9 NW 6 9 1009.0 F 0.0 Haze Clear 15 - - - -
26/11:30am 29.4 NW 6 9 1009.4 - 0.0 - - 10 - - - -
26/11:00am 28.7 W 7 10 1009.8 - 0.0 - - 10 - - - -
26/10:30am 27.2 WNW 7 9 1010.2 - 0.0 - - 10 - - - -
26/10:00am 26.6 NW 9 11 1010.5 - 0.0 - - 10 - - - -
26/09:30am 24.9 NNW 8 10 1010.7 - 0.0 - - 10 - - - -
26/09:00am 23.6 NNW 7 10 1010.9 F 0.2 Haze Mostly clear 10 - - - -
26/08:30am 22.2 NNW 7 8 1011.1 - 0.2 - - 10 - - - -
26/08:00am 20.8 NNW 7 9 1010.8 - 0.2 - - 10 - - - -
26/07:30am 20.0 N 5 7 1011.1 - 0.2 - - 10 - - - -
26/07:00am 18.6 N 4 5 1011.2 - 0.2 - Mostly clear 9 - - - -
26/06:30am 17.9 N 4 6 1011.3 - 0.2 Shallow fog Mostly clear 6 - - - -
26/06:00am 18.2 NNE 7 10 1011.6 F 0.2 Shallow fog Partly cloudy 6 - - - -
26/05:57am 18.1 NNE 6 10 1011.5 - 0.2 - - 7 - - - -
26/05:30am 18.0 NNE 6 8 1011.6 - 0.2 - - 5 - - - -
26/05:00am 18.1 N 5 9 1011.8 - 0.2 - - 4 - - - -
26/04:30am 18.1 NE 7 11 1011.8 - 0.2 - - 5 - - - -
26/04:00am 17.9 N 5 7 1012.5 - 0.2 - - 4 - - - -
26/03:30am 18.4 N 7 9 1013.2 - 0.2 - - 5 - - - -
26/03:00am 18.6 N 7 9 1013.7 - 0.2 - - 6 - - - -
26/02:49am 18.7 N 7 9 1013.6 - 0.2 - - 6 - - - -
26/02:30am 19.0 NE 7 8 1013.5 - 0.2 - - 8 - - - -
26/02:00am 19.8 ESE 7 10 1014.5 - 0.2 - Partly cloudy 10 - - - -
26/01:30am 19.8 SSW 7 9 1015.8 - 0.2 - Partly cloudy 9 - - - -
26/01:22am 19.9 SSW 8 11 1015.8 - 0.2 - Partly cloudy 9 - - - -
26/01:00am 20.0 SSW 11 17 1016.6 - 0.2 - Partly cloudy 10 - - - -
26/12:41am 19.7 SSW 15 20 1016.9 - 0.2 - Cloudy 8 - - - -
26/12:30am 19.7 S 5 6 1015.2 - 0.2 - Cloudy 8 - - - -
26/12:02am 19.5 SW 6 8 1015.3 - 0.2 - Cloudy 7 - - - -
26/12:00am 19.4 SW 6 8 1015.5 - 0.2 - Mostly cloudy 7 - - - -
 
Date/Time
EDT
Temp

°C
Wind Pressure Rain
since 9am
mm
Weather Cloud Vis
km
Sea
Height
m
Swell
Dir
 
Speed
knots
Gust
knots
hPa Trend Height
m
Period
s
Dir
25/11:49pm 19.4 SSW 7 9 1015.5 - 0.2 - Cloudy 6 - - - -
25/11:30pm 19.5 S 6 8 1015.3 - 0.2 - Cloudy 8 - - - -
25/11:00pm 19.5 CALM 0 0 1015.5 - 0.2 - Cloudy 7 - - - -
25/10:30pm 19.5 SW 3 6 1015.6 - 0.2 - Partly cloudy 8 - - - -
25/10:16pm 19.5 S 6 9 1016.0 - 0.2 - Partly cloudy 8 - - - -
25/10:00pm 19.8 S 8 12 1016.0 - 0.2 - Partly cloudy 10 - - - -
25/09:30pm 20.5 WNW 10 16 1015.6 - 0.2 - Partly cloudy 10 - - - -
25/09:15pm 20.1 NW 15 28 1014.5 - 0.2 - Partly cloudy 8 - - - -
25/09:12pm 19.8 NE 13 19 1013.9 - 0.2 - Partly cloudy 8 - - - -
25/09:10pm 19.9 E 20 24 1014.0 - 0.2 - Partly cloudy 8 - - - -
25/09:09pm 19.9 ESE 17 23 1014.5 - 0.2 - Partly cloudy 8 - - - -
25/09:08pm 19.9 ESE 17 22 1015.4 - 0.2 - Partly cloudy 8 - - - -
25/09:00pm 20.2 SSE 11 12 1016.7 - 0.2 - Cloudy 9 - - - -
25/08:30pm 19.8 S 7 10 1016.0 - 0.2 - Partly cloudy 7 - - - -
25/08:00pm 19.6 S 6 7 1015.2 - 0.2 - Partly cloudy 8 - - - -
25/07:56pm 19.6 S 5 7 1015.1 - 0.2 - Partly cloudy 8 - - - -
25/07:30pm 19.8 SSE 7 9 1014.5 - 0.2 - - 9 - - - -
25/07:00pm 20.6 SSE 7 8 1014.2 - 0.2 - - 10 - - - -
25/06:30pm 21.8 SSE 7 8 1013.8 - 0.2 - - 10 - - - -
25/06:00pm 22.2 SSE 7 8 1013.6 - 0.2 - - 10 - - - -
25/05:30pm 22.3 S 8 10 1013.8 - 0.2 - - - - - - -
25/05:00pm 23.1 SE 10 12 1013.4 - 0.2 - - 10 - - - -
25/04:30pm 24.3 SSE 12 15 1013.4 - 0.2 - - 10 - - - -
25/04:00pm 24.0 SSE 10 14 1013.4 - 0.2 - - 10 - - - -
25/03:30pm 25.6 S 13 18 1013.5 - 0.2 - - 10 - - - -
25/03:00pm 27.4 SSE 12 15 1013.6 - 0.2 - - 10 - - - -
25/02:30pm 27.5 SSE 11 14 1013.6 - 0.2 - - - - - - -
25/02:00pm 27.8 SSE 10 15 1013.9 - 0.2 - - - - - - -
25/01:30pm 28.1 S 9 12 1014.2 - 0.2 - - - - - - -
25/01:00pm 27.9 S 9 11 1014.3 - 0.2 - - - - - - -
25/12:30pm 28.9 SSE 10 13 1014.3 - 0.2 - - - - - - -
25/12:00pm 29.5 S 7 12 1014.7 - 0.2 - - - - - - -
25/11:30am 29.5 S 11 14 1015.2 - 0.2 - - - - - - -
25/11:00am 28.9 W 10 12 1015.3 - 0.2 - - - - - - -
25/10:30am 28.1 WNW 7 10 1015.5 - 0.2 - - - - - - -
25/10:00am 27.2 WNW 7 9 1015.5 - 0.0 - - - - - - -
25/09:30am 25.7 WNW 5 8 1015.4 - 0.0 - - 10 - - - -
25/09:00am 24.7 W 6 8 1015.5 - 1.0 - - 10 - - - -
25/08:30am 24.0 W 7 9 1015.1 - 1.0 - - 10 - - - -
25/08:00am 22.9 W 8 10 1015.0 - 1.0 - - - - - - -
25/07:30am 20.1 WNW 2 7 1014.5 - 1.0 - - 10 - - - -
25/07:00am 18.0 NW 6 7 1014.0 - 1.0 - - - - - - -
25/06:30am 17.2 NW 1 6 1013.5 - 1.0 - - 10 - - - -
25/06:00am 17.0 NW 8 10 1013.1 - 1.0 - - 10 - - - -
25/05:44am 16.4 CALM 0 5 1012.8 - 1.0 - - 1 - - - -
25/05:34am 16.1 CALM 0 0 1012.6 - 1.0 - - 1 - - - -
25/05:31am 16.3 CALM 0 0 1012.5 - 1.0 - - 6 - - - -
25/05:30am 16.3 CALM 0 0 1012.5 - 1.0 - - 10 - - - -
25/05:00am 16.8 CALM 0 0 1012.3 - 1.0 - - 8 - - - -
25/04:30am 17.4 NNE 4 5 1012.0 - 1.0 - - 10 - - - -
25/04:00am 17.5 N 5 6 1012.0 - 1.0 - - 10 - - - -
25/03:30am 19.1 CALM 0 0 1011.9 - 1.0 - - 10 - - - -
25/03:00am 19.6 N 3 6 1011.9 - 1.0 - - 10 - - - -
25/02:30am 20.0 N 6 7 1011.8 - 1.0 - - 10 - - - -
25/02:00am 20.8 NNE 8 10 1012.0 - 1.0 - - 10 - - - -
25/01:30am 21.3 N 8 12 1012.2 - 1.0 - - 10 - - - -
25/01:00am 21.2 N 9 15 1012.4 - 1.0 - - 10 - - - -
25/12:30am 20.5 N 11 14 1012.9 - 1.0 - - 10 - - - -
25/12:00am 20.3 NNE 12 15 1013.0 - 1.0 - Partly cloudy - - - - -
 
Date/Time
EDT
Temp

°C
Wind Pressure Rain
since 9am
mm
Weather Cloud Vis
km
Sea
Height
m
Swell
Dir
 
Speed
knots
Gust
knots
hPa Trend Height
m
Period
s
Dir
24/11:42pm 21.0 E 15 23 1013.0 - 1.0 - Partly cloudy - - - - -
24/11:30pm 20.8 E 10 11 1014.3 - 0.8 - Partly cloudy - - - - -
24/11:00pm 21.0 W 8 11 1016.1 - 0.0 - Partly cloudy 10 - - - -
24/10:59pm 21.0 WSW 9 11 1016.2 - 0.0 - Partly cloudy 10 - - - -
24/10:42pm 22.1 W 15 26 1014.2 - 0.0 - Partly cloudy 10 - - - -
24/10:30pm 22.3 NE 9 15 1012.6 - 0.0 - Partly cloudy 10 - - - -
24/10:00pm 22.4 NE 9 14 1012.9 - 0.0 - - 10 - - - -
24/09:30pm 22.6 NE 11 15 1013.2 - 0.0 - - 10 - - - -
24/09:00pm 22.7 NE 10 15 1013.5 - 0.0 - - 10 - - - -
24/08:30pm 22.4 NE 9 14 1013.5 - 0.0 - - 10 - - - -
24/08:00pm 22.6 ENE 10 14 1013.6 - 0.0 - - 10 - - - -
24/07:30pm 23.3 NE 10 15 1013.6 - 0.0 - - - - - - -
24/07:00pm 24.2 ENE 10 15 1013.6 - 0.0 - - - - - - -
24/06:30pm 25.2 NE 10 14 1013.7 - 0.0 - - - - - - -
24/06:00pm 26.4 ENE 12 16 1013.6 - 0.0 - - - - - - -
24/05:30pm 27.7 NE 10 15 1013.7 - 0.0 - - - - - - -
24/05:00pm 28.3 NE 10 15 1013.8 - 0.0 - - - - - - -
24/04:30pm 28.7 NE 10 15 1014.2 - 0.0 - - 10 - - - -
24/04:00pm 28.4 NE 9 14 1014.6 - 0.0 - - 10 - - - -
24/03:30pm 27.9 NNE 9 13 1015.3 - 0.0 - - 10 - - - -
24/03:00pm 27.1 ENE 9 13 1016.1 - 0.0 - - 10 - - - -
24/02:30pm 26.1 ENE 10 14 1016.7 - 0.0 - - 10 - - - -
24/02:00pm 26.6 NNE 8 13 1017.2 - 0.0 - - 10 - - - -
24/01:30pm 25.2 NE 8 10 1017.7 - 0.0 - - 10 - - - -
24/01:00pm 23.5 NE 10 12 1018.5 - 0.0 - Partly cloudy 10 - - - -
24/12:30pm 24.2 SSE 5 13 1019.5 - 0.0 Showers Mostly clear 10 - - - -
24/12:00pm 24.1 NW 6 8 1019.8 - 0.0 - Mostly cloudy 10 - - - -
24/11:30am 24.3 WNW 8 12 1019.8 - 0.0 - Partly cloudy 10 - - - -
24/11:00am 24.1 NNW 7 12 1019.9 - 0.0 - - 10 - - - -
24/10:30am 23.2 NNW 8 12 1020.1 - 0.0 - Partly cloudy 10 - - - -
24/10:00am 21.0 NNW 7 9 1020.9 - 0.0 - Partly cloudy 10 - - - -
24/09:54am 20.8 N 6 9 1020.8 - 0.0 - Partly cloudy 10 - - - -
24/09:43am 20.3 N 7 9 1020.6 - 0.0 - Mostly clear 10 - - - -
24/09:30am 19.8 NNW 8 11 1020.7 - 0.0 - Partly cloudy 10 - - - -
24/09:00am 19.5 WSW 8 12 1020.9 - 0.0 - Mostly cloudy 10 - - - -
24/08:50am 19.4 WSW 10 13 1020.9 - 0.0 - Partly cloudy 10 - - - -
24/08:30am 18.9 NNE 11 15 1019.2 - 0.0 - Mostly clear 10 - - - -
24/08:00am 17.9 N 6 8 1020.6 - 0.0 - Partly cloudy 10 - - - -
24/07:53am 17.8 N 7 9 1020.6 - 0.0 - Partly cloudy 10 - - - -
24/07:30am 17.5 N 5 7 1020.7 - 0.0 - Partly cloudy 8 - - - -
24/07:00am 16.6 NNW 5 6 1020.7 - 0.0 - Partly cloudy 8 - - - -
24/06:30am 16.5 N 5 6 1020.5 - 0.0 - Mostly clear 8 - - - -
24/06:00am 16.5 NW 5 6 1020.7 - 0.0 - Cloudy 7 - - - -
24/05:42am 16.5 CALM 0 0 1020.4 - 0.0 - Cloudy 7 - - - -
24/05:30am 16.4 W 5 6 1020.2 - 0.0 - Partly cloudy 6 - - - -
24/05:26am 16.4 W 5 6 1020.2 - 0.0 - Partly cloudy 6 - - - -
24/05:25am 16.4 W 6 6 1020.2 - 0.0 - Partly cloudy 7 - - - -
24/05:00am 14.2 CALM 0 0 1019.5 - 0.0 - Partly cloudy 3 - - - -
24/04:57am 14.0 CALM 0 0 1019.4 - 0.0 - Partly cloudy 3 - - - -
24/04:44am 13.1 CALM 0 0 1018.9 - 0.0 - Partly cloudy 7 - - - -
24/04:34am 13.2 CALM 0 0 1019.0 - 0.0 - Partly cloudy 0.7 - - - -
24/04:30am 13.0 CALM 0 0 1019.0 - 0.0 - Partly cloudy 0.3 - - - -
24/04:23am 13.5 CALM 0 0 1018.8 - 0.0 - Partly cloudy 0.5 - - - -
24/04:22am 13.4 CALM 0 0 1018.8 - 0.0 - Partly cloudy 0.7 - - - -
24/04:00am 13.6 CALM 0 0 1018.7 - 0.0 - Partly cloudy 4 - - - -
24/03:30am 14.0 NW 1 4 1018.5 - 0.0 - - 4 - - - -
24/03:18am 13.7 WSW 2 5 1019.0 - 0.0 - Partly cloudy 1 - - - -
24/03:10am 13.0 CALM 0 0 1018.8 - 0.0 - - 0.9 - - - -
24/03:00am 13.1 CALM 0 0 1019.0 - 0.0 - - 2 - - - -
24/02:42am 14.0 CALM 0 0 1018.8 - 0.0 - - 5 - - - -
24/02:30am 14.3 CALM 0 0 1018.9 - 0.0 - - 10 - - - -
24/02:00am 13.9 CALM 0 0 1019.0 - 0.0 - - 10 - - - -
24/01:30am 14.5 CALM 0 0 1019.3 - 0.0 - - 10 - - - -
24/01:00am 14.9 CALM 0 0 1019.4 - 0.0 - - 10 - - - -
24/12:30am 14.7 W 5 6 1019.4 - 0.0 - - 10 - - - -
24/12:00am 15.2 CALM 0 0 1019.3 - 0.0 - - 10 - - - -
 
Date/Time
EDT
Temp

°C
Wind Pressure Rain
since 9am
mm
Weather Cloud Vis
km
Sea
Height
m
Swell
Dir
 
Speed
knots
Gust
knots
hPa Trend Height
m
Period
s
Dir
23/11:30pm 14.9 CALM 0 0 1019.5 - 0.0 - - 10 - - - -
23/11:00pm 15.4 CALM 0 0 1019.5 - 0.0 - - 10 - - - -
23/10:30pm 15.9 CALM 0 0 1019.5 - 0.0 - - 10 - - - -
23/10:00pm 16.5 CALM 0 0 1019.2 - 0.0 - - 10 - - - -
23/09:30pm 17.1 CALM 0 0 1019.1 - 0.0 - - 10 - - - -
23/09:00pm 18.2 ESE 2 4 1018.8 - 0.0 - - 10 - - - -
23/08:30pm 19.5 ENE 1 5 1018.2 - 0.0 - - 10 - - - -
23/08:00pm 19.9 ENE 1 5 1017.9 - 0.0 - - 10 - - - -
23/07:30pm 21.5 CALM 0 0 1017.7 - 0.0 - - 10 - - - -
23/07:00pm 22.6 NE 5 8 1017.1 - 0.0 - - 10 - - - -
23/06:30pm 24.2 ENE 7 9 1016.7 - 0.0 - - 10 - - - -
23/06:00pm 25.3 E 8 11 1016.1 - 0.0 - - 10 - - - -

Other Formats:

Comma delimited format used in spreadsheet applications
http://www.bom.gov.au/fwo/IDN60701/IDN60701.94776.axf

JavaScript Object Notation format (JSON) in row-major order
http://www.bom.gov.au/fwo/IDN60701/IDN60701.94776.json